sensor_id;sensor_type;location;lat;lon;timestamp;P1;durP1;ratioP1;P2;durP2;ratioP2
46308;SDS011;32037;50.820;6.494;2022-08-18T00:01:08;6.90;;;6.40;;
46308;SDS011;32037;50.820;6.494;2022-08-18T00:03:42;7.93;;;7.23;;
46308;SDS011;32037;50.820;6.494;2022-08-18T00:06:25;7.07;;;6.57;;
46308;SDS011;32037;50.820;6.494;2022-08-18T00:08:56;7.33;;;6.73;;
46308;SDS011;32037;50.820;6.494;2022-08-18T00:11:26;7.33;;;6.83;;
46308;SDS011;32037;50.820;6.494;2022-08-18T00:14:08;7.27;;;6.77;;
46308;SDS011;32037;50.820;6.494;2022-08-18T00:16:48;7.20;;;6.70;;
46308;SDS011;32037;50.820;6.494;2022-08-18T00:19:20;6.80;;;6.30;;
46308;SDS011;32037;50.820;6.494;2022-08-18T00:22:09;7.50;;;6.97;;
46308;SDS011;32037;50.820;6.494;2022-08-18T00:24:41;7.00;;;6.50;;
46308;SDS011;32037;50.820;6.494;2022-08-18T00:27:15;7.30;;;6.80;;
46308;SDS011;32037;50.820;6.494;2022-08-18T00:29:48;7.63;;;7.00;;
46308;SDS011;32037;50.820;6.494;2022-08-18T00:32:18;7.20;;;6.70;;
46308;SDS011;32037;50.820;6.494;2022-08-18T00:34:50;7.33;;;6.73;;
46308;SDS011;32037;50.820;6.494;2022-08-18T00:37:19;7.13;;;6.63;;
46308;SDS011;32037;50.820;6.494;2022-08-18T00:39:49;8.00;;;7.40;;
46308;SDS011;32037;50.820;6.494;2022-08-18T00:42:19;7.53;;;6.87;;
46308;SDS011;32037;50.820;6.494;2022-08-18T00:44:57;7.13;;;6.60;;
46308;SDS011;32037;50.820;6.494;2022-08-18T00:47:27;7.87;;;7.27;;
46308;SDS011;32037;50.820;6.494;2022-08-18T00:50:13;7.67;;;7.17;;
46308;SDS011;32037;50.820;6.494;2022-08-18T00:52:46;7.63;;;7.03;;
46308;SDS011;32037;50.820;6.494;2022-08-18T00:55:19;7.07;;;6.57;;
46308;SDS011;32037;50.820;6.494;2022-08-18T00:57:49;7.70;;;7.10;;
46308;SDS011;32037;50.820;6.494;2022-08-18T01:00:21;7.17;;;6.57;;
46308;SDS011;32037;50.820;6.494;2022-08-18T01:02:50;7.13;;;6.63;;
46308;SDS011;32037;50.820;6.494;2022-08-18T01:05:25;8.17;;;7.47;;
46308;SDS011;32037;50.820;6.494;2022-08-18T01:07:59;7.40;;;6.83;;
46308;SDS011;32037;50.820;6.494;2022-08-18T01:10:28;6.97;;;6.47;;
46308;SDS011;32037;50.820;6.494;2022-08-18T01:13:01;7.80;;;7.30;;
46308;SDS011;32037;50.820;6.494;2022-08-18T01:15:30;7.70;;;7.10;;
46308;SDS011;32037;50.820;6.494;2022-08-18T01:18:00;8.30;;;7.70;;
46308;SDS011;32037;50.820;6.494;2022-08-18T01:20:54;8.73;;;8.03;;
46308;SDS011;32037;50.820;6.494;2022-08-18T01:23:42;7.70;;;7.20;;
46308;SDS011;32037;50.820;6.494;2022-08-18T01:26:12;8.53;;;7.83;;
46308;SDS011;32037;50.820;6.494;2022-08-18T01:28:43;8.57;;;7.97;;
46308;SDS011;32037;50.820;6.494;2022-08-18T01:31:28;8.73;;;8.00;;
46308;SDS011;32037;50.820;6.494;2022-08-18T01:34:04;8.00;;;7.30;;
46308;SDS011;32037;50.820;6.494;2022-08-18T01:36:33;8.23;;;7.43;;
46308;SDS011;32037;50.820;6.494;2022-08-18T01:39:05;8.13;;;7.47;;
46308;SDS011;32037;50.820;6.494;2022-08-18T01:41:35;7.30;;;6.80;;
46308;SDS011;32037;50.820;6.494;2022-08-18T01:44:04;7.93;;;7.33;;
46308;SDS011;32037;50.820;6.494;2022-08-18T01:46:34;8.40;;;7.70;;
46308;SDS011;32037;50.820;6.494;2022-08-18T01:49:03;7.27;;;6.77;;
46308;SDS011;32037;50.820;6.494;2022-08-18T01:51:33;9.20;;;8.40;;
46308;SDS011;32037;50.820;6.494;2022-08-18T01:54:09;8.10;;;7.50;;
46308;SDS011;32037;50.820;6.494;2022-08-18T01:56:39;7.80;;;7.30;;
46308;SDS011;32037;50.820;6.494;2022-08-18T01:59:09;8.43;;;7.83;;
46308;SDS011;32037;50.820;6.494;2022-08-18T02:01:41;9.10;;;8.37;;
46308;SDS011;32037;50.820;6.494;2022-08-18T02:04:19;8.13;;;7.50;;
46308;SDS011;32037;50.820;6.494;2022-08-18T02:07:07;7.80;;;7.20;;
46308;SDS011;32037;50.820;6.494;2022-08-18T02:09:38;8.77;;;8.07;;
46308;SDS011;32037;50.820;6.494;2022-08-18T02:12:09;8.83;;;8.03;;
46308;SDS011;32037;50.820;6.494;2022-08-18T02:14:38;8.13;;;7.53;;
46308;SDS011;32037;50.820;6.494;2022-08-18T02:17:08;8.60;;;7.97;;
46308;SDS011;32037;50.820;6.494;2022-08-18T02:19:40;8.03;;;7.43;;
46308;SDS011;32037;50.820;6.494;2022-08-18T02:22:11;8.33;;;7.73;;
46308;SDS011;32037;50.820;6.494;2022-08-18T02:24:42;9.20;;;8.50;;
46308;SDS011;32037;50.820;6.494;2022-08-18T02:27:11;9.10;;;8.40;;
46308;SDS011;32037;50.820;6.494;2022-08-18T02:29:41;8.10;;;7.50;;
46308;SDS011;32037;50.820;6.494;2022-08-18T02:32:09;8.27;;;7.60;;
46308;SDS011;32037;50.820;6.494;2022-08-18T02:34:38;8.60;;;8.00;;
46308;SDS011;32037;50.820;6.494;2022-08-18T02:37:08;8.97;;;8.03;;
46308;SDS011;32037;50.820;6.494;2022-08-18T02:39:42;9.17;;;8.47;;
46308;SDS011;32037;50.820;6.494;2022-08-18T02:42:13;8.90;;;8.10;;
46308;SDS011;32037;50.820;6.494;2022-08-18T02:44:42;8.10;;;7.50;;
46308;SDS011;32037;50.820;6.494;2022-08-18T02:47:10;7.83;;;7.23;;
46308;SDS011;32037;50.820;6.494;2022-08-18T02:49:39;8.50;;;7.80;;
46308;SDS011;32037;50.820;6.494;2022-08-18T02:52:07;8.03;;;7.43;;
46308;SDS011;32037;50.820;6.494;2022-08-18T02:54:36;8.37;;;7.77;;
46308;SDS011;32037;50.820;6.494;2022-08-18T02:57:07;9.33;;;8.63;;
46308;SDS011;32037;50.820;6.494;2022-08-18T02:59:37;9.83;;;9.13;;
46308;SDS011;32037;50.820;6.494;2022-08-18T03:02:07;9.77;;;8.97;;
46308;SDS011;32037;50.820;6.494;2022-08-18T03:04:37;9.23;;;8.47;;
46308;SDS011;32037;50.820;6.494;2022-08-18T03:07:06;9.53;;;8.67;;
46308;SDS011;32037;50.820;6.494;2022-08-18T03:09:35;9.20;;;8.40;;
46308;SDS011;32037;50.820;6.494;2022-08-18T03:12:05;9.13;;;8.43;;
46308;SDS011;32037;50.820;6.494;2022-08-18T03:14:35;9.00;;;8.20;;
46308;SDS011;32037;50.820;6.494;2022-08-18T03:17:05;9.50;;;8.70;;
46308;SDS011;32037;50.820;6.494;2022-08-18T03:19:35;9.10;;;8.37;;
46308;SDS011;32037;50.820;6.494;2022-08-18T03:22:04;10.30;;;9.40;;
46308;SDS011;32037;50.820;6.494;2022-08-18T03:24:55;9.07;;;8.33;;
46308;SDS011;32037;50.820;6.494;2022-08-18T03:27:25;9.90;;;9.10;;
46308;SDS011;32037;50.820;6.494;2022-08-18T03:29:54;9.20;;;8.50;;
46308;SDS011;32037;50.820;6.494;2022-08-18T03:32:24;10.00;;;9.10;;
46308;SDS011;32037;50.820;6.494;2022-08-18T03:34:52;10.07;;;9.27;;
46308;SDS011;32037;50.820;6.494;2022-08-18T03:37:21;9.60;;;8.90;;
46308;SDS011;32037;50.820;6.494;2022-08-18T03:39:50;9.23;;;8.43;;
46308;SDS011;32037;50.820;6.494;2022-08-18T03:42:18;8.40;;;7.80;;
46308;SDS011;32037;50.820;6.494;2022-08-18T03:44:48;8.80;;;8.10;;
46308;SDS011;32037;50.820;6.494;2022-08-18T03:47:17;9.53;;;8.83;;
46308;SDS011;32037;50.820;6.494;2022-08-18T03:49:46;8.53;;;7.83;;
46308;SDS011;32037;50.820;6.494;2022-08-18T03:52:15;9.53;;;8.83;;
46308;SDS011;32037;50.820;6.494;2022-08-18T03:54:44;8.97;;;8.27;;
46308;SDS011;32037;50.820;6.494;2022-08-18T03:57:14;10.03;;;9.23;;
46308;SDS011;32037;50.820;6.494;2022-08-18T03:59:42;10.00;;;9.20;;
46308;SDS011;32037;50.820;6.494;2022-08-18T04:02:12;9.10;;;8.40;;
46308;SDS011;32037;50.820;6.494;2022-08-18T04:04:40;10.83;;;9.93;;
46308;SDS011;32037;50.820;6.494;2022-08-18T04:07:10;9.07;;;8.27;;
46308;SDS011;32037;50.820;6.494;2022-08-18T04:09:44;8.93;;;8.23;;
46308;SDS011;32037;50.820;6.494;2022-08-18T04:12:13;9.90;;;9.07;;
46308;SDS011;32037;50.820;6.494;2022-08-18T04:14:44;8.57;;;7.93;;
46308;SDS011;32037;50.820;6.494;2022-08-18T04:17:16;8.87;;;8.07;;
46308;SDS011;32037;50.820;6.494;2022-08-18T04:19:49;9.30;;;8.50;;
46308;SDS011;32037;50.820;6.494;2022-08-18T04:22:18;9.07;;;8.27;;
46308;SDS011;32037;50.820;6.494;2022-08-18T04:24:46;8.77;;;7.97;;
46308;SDS011;32037;50.820;6.494;2022-08-18T04:27:16;10.17;;;9.27;;
46308;SDS011;32037;50.820;6.494;2022-08-18T04:29:45;10.20;;;9.30;;
46308;SDS011;32037;50.820;6.494;2022-08-18T04:32:14;9.70;;;8.90;;
46308;SDS011;32037;50.820;6.494;2022-08-18T04:34:44;10.20;;;9.30;;
46308;SDS011;32037;50.820;6.494;2022-08-18T04:37:13;9.90;;;9.10;;
46308;SDS011;32037;50.820;6.494;2022-08-18T04:39:42;9.30;;;8.60;;
46308;SDS011;32037;50.820;6.494;2022-08-18T04:42:11;8.53;;;7.87;;
46308;SDS011;32037;50.820;6.494;2022-08-18T04:44:40;9.87;;;8.97;;
46308;SDS011;32037;50.820;6.494;2022-08-18T04:47:09;10.60;;;9.60;;
46308;SDS011;32037;50.820;6.494;2022-08-18T04:49:38;9.20;;;8.50;;
46308;SDS011;32037;50.820;6.494;2022-08-18T04:52:08;10.57;;;9.63;;
46308;SDS011;32037;50.820;6.494;2022-08-18T04:55:07;9.10;;;8.40;;
46308;SDS011;32037;50.820;6.494;2022-08-18T04:57:37;9.73;;;8.97;;
46308;SDS011;32037;50.820;6.494;2022-08-18T05:00:08;11.67;;;10.63;;
46308;SDS011;32037;50.820;6.494;2022-08-18T05:02:38;9.53;;;8.77;;
46308;SDS011;32037;50.820;6.494;2022-08-18T05:05:08;10.30;;;9.50;;
46308;SDS011;32037;50.820;6.494;2022-08-18T05:07:41;10.10;;;9.20;;
46308;SDS011;32037;50.820;6.494;2022-08-18T05:10:12;10.50;;;9.63;;
46308;SDS011;32037;50.820;6.494;2022-08-18T05:12:45;10.60;;;9.70;;
46308;SDS011;32037;50.820;6.494;2022-08-18T05:15:14;10.47;;;9.57;;
46308;SDS011;32037;50.820;6.494;2022-08-18T05:17:44;10.80;;;9.90;;
46308;SDS011;32037;50.820;6.494;2022-08-18T05:20:16;11.37;;;10.33;;
46308;SDS011;32037;50.820;6.494;2022-08-18T05:22:48;10.50;;;9.53;;
46308;SDS011;32037;50.820;6.494;2022-08-18T05:25:16;10.10;;;9.20;;
46308;SDS011;32037;50.820;6.494;2022-08-18T05:28:04;11.73;;;10.70;;
46308;SDS011;32037;50.820;6.494;2022-08-18T05:30:53;11.30;;;10.20;;
46308;SDS011;32037;50.820;6.494;2022-08-18T05:33:26;10.30;;;9.40;;
46308;SDS011;32037;50.820;6.494;2022-08-18T05:36:02;11.13;;;10.03;;
46308;SDS011;32037;50.820;6.494;2022-08-18T05:38:37;11.40;;;9.77;;
46308;SDS011;32037;50.820;6.494;2022-08-18T05:41:21;12.17;;;11.00;;
46308;SDS011;32037;50.820;6.494;2022-08-18T05:43:53;10.60;;;9.70;;
46308;SDS011;32037;50.820;6.494;2022-08-18T05:46:29;10.30;;;9.50;;
46308;SDS011;32037;50.820;6.494;2022-08-18T05:49:03;11.63;;;10.60;;
46308;SDS011;32037;50.820;6.494;2022-08-18T05:51:34;11.60;;;10.47;;
46308;SDS011;32037;50.820;6.494;2022-08-18T05:54:08;11.50;;;9.63;;
46308;SDS011;32037;50.820;6.494;2022-08-18T05:57:00;11.83;;;10.83;;
46308;SDS011;32037;50.820;6.494;2022-08-18T05:59:33;11.90;;;10.60;;
46308;SDS011;32037;50.820;6.494;2022-08-18T06:02:05;12.37;;;11.07;;
46308;SDS011;32037;50.820;6.494;2022-08-18T06:04:42;12.07;;;10.87;;
46308;SDS011;32037;50.820;6.494;2022-08-18T06:07:27;12.33;;;11.23;;
46308;SDS011;32037;50.820;6.494;2022-08-18T06:10:02;11.43;;;10.40;;
46308;SDS011;32037;50.820;6.494;2022-08-18T06:12:34;12.17;;;10.97;;
46308;SDS011;32037;50.820;6.494;2022-08-18T06:15:13;12.70;;;11.50;;
46308;SDS011;32037;50.820;6.494;2022-08-18T06:17:59;11.07;;;10.07;;
46308;SDS011;32037;50.820;6.494;2022-08-18T06:20:40;11.87;;;10.80;;
46308;SDS011;32037;50.820;6.494;2022-08-18T06:23:28;11.70;;;10.70;;
46308;SDS011;32037;50.820;6.494;2022-08-18T06:26:06;13.07;;;11.77;;
46308;SDS011;32037;50.820;6.494;2022-08-18T06:28:45;12.60;;;11.50;;
46308;SDS011;32037;50.820;6.494;2022-08-18T06:31:26;11.50;;;10.60;;
46308;SDS011;32037;50.820;6.494;2022-08-18T06:34:08;11.67;;;10.77;;
46308;SDS011;32037;50.820;6.494;2022-08-18T06:36:46;11.70;;;10.50;;
46308;SDS011;32037;50.820;6.494;2022-08-18T06:39:21;11.40;;;10.40;;
46308;SDS011;32037;50.820;6.494;2022-08-18T06:41:57;13.23;;;10.77;;
46308;SDS011;32037;50.820;6.494;2022-08-18T06:44:28;13.47;;;12.27;;
46308;SDS011;32037;50.820;6.494;2022-08-18T06:47:05;11.80;;;10.70;;
46308;SDS011;32037;50.820;6.494;2022-08-18T06:49:42;11.30;;;10.30;;
46308;SDS011;32037;50.820;6.494;2022-08-18T06:52:19;11.40;;;10.40;;
46308;SDS011;32037;50.820;6.494;2022-08-18T06:54:51;12.70;;;11.50;;
46308;SDS011;32037;50.820;6.494;2022-08-18T06:57:24;11.43;;;10.33;;
46308;SDS011;32037;50.820;6.494;2022-08-18T06:59:59;12.93;;;11.73;;
46308;SDS011;32037;50.820;6.494;2022-08-18T07:02:39;12.97;;;11.77;;
46308;SDS011;32037;50.820;6.494;2022-08-18T07:05:20;12.00;;;10.90;;
46308;SDS011;32037;50.820;6.494;2022-08-18T07:10:44;13.50;;;12.30;;
46308;SDS011;32037;50.820;6.494;2022-08-18T07:13:19;10.93;;;9.77;;
46308;SDS011;32037;50.820;6.494;2022-08-18T07:15:51;12.53;;;11.30;;
46308;SDS011;32037;50.820;6.494;2022-08-18T07:18:22;11.87;;;10.87;;
46308;SDS011;32037;50.820;6.494;2022-08-18T07:20:54;11.63;;;10.53;;
46308;SDS011;32037;50.820;6.494;2022-08-18T07:23:26;20.60;;;18.50;;
46308;SDS011;32037;50.820;6.494;2022-08-18T07:26:04;30.20;;;26.25;;
46308;SDS011;32037;50.820;6.494;2022-08-18T07:28:37;24.90;;;19.07;;
46308;SDS011;32037;50.820;6.494;2022-08-18T07:31:19;22.57;;;18.70;;
46308;SDS011;32037;50.820;6.494;2022-08-18T07:33:58;17.47;;;15.63;;
46308;SDS011;32037;50.820;6.494;2022-08-18T07:36:31;19.67;;;16.50;;
46308;SDS011;32037;50.820;6.494;2022-08-18T07:39:10;17.87;;;15.97;;
46308;SDS011;32037;50.820;6.494;2022-08-18T07:41:42;19.57;;;16.40;;
46308;SDS011;32037;50.820;6.494;2022-08-18T07:44:19;15.57;;;13.97;;
46308;SDS011;32037;50.820;6.494;2022-08-18T07:46:54;15.57;;;13.33;;
46308;SDS011;32037;50.820;6.494;2022-08-18T07:49:29;16.33;;;14.10;;
46308;SDS011;32037;50.820;6.494;2022-08-18T07:52:02;14.83;;;13.33;;
46308;SDS011;32037;50.820;6.494;2022-08-18T07:54:55;18.85;;;16.90;;
46308;SDS011;32037;50.820;6.494;2022-08-18T07:57:32;21.70;;;19.27;;
46308;SDS011;32037;50.820;6.494;2022-08-18T08:00:15;24.47;;;20.90;;
46308;SDS011;32037;50.820;6.494;2022-08-18T08:03:10;22.97;;;20.67;;
46308;SDS011;32037;50.820;6.494;2022-08-18T08:05:53;24.23;;;20.73;;
46308;SDS011;32037;50.820;6.494;2022-08-18T08:08:28;22.60;;;20.20;;
46308;SDS011;32037;50.820;6.494;2022-08-18T08:11:06;26.97;;;21.03;;
46308;SDS011;32037;50.820;6.494;2022-08-18T08:13:47;24.20;;;18.40;;
46308;SDS011;32037;50.820;6.494;2022-08-18T08:16:27;25.70;;;22.30;;
46308;SDS011;32037;50.820;6.494;2022-08-18T08:19:06;23.00;;;18.17;;
46308;SDS011;32037;50.820;6.494;2022-08-18T08:22:10;19.90;;;17.80;;
46308;SDS011;32037;50.820;6.494;2022-08-18T08:24:45;19.43;;;17.43;;
46308;SDS011;32037;50.820;6.494;2022-08-18T08:27:26;22.40;;;18.57;;
46308;SDS011;32037;50.820;6.494;2022-08-18T08:30:03;29.80;;;23.93;;
46308;SDS011;32037;50.820;6.494;2022-08-18T08:32:36;27.15;;;21.92;;
46308;SDS011;32037;50.820;6.494;2022-08-18T08:35:17;22.70;;;18.67;;
46308;SDS011;32037;50.820;6.494;2022-08-18T08:38:09;22.70;;;18.83;;
46308;SDS011;32037;50.820;6.494;2022-08-18T08:41:02;26.07;;;19.47;;
46308;SDS011;32037;50.820;6.494;2022-08-18T08:43:36;21.60;;;19.37;;
46308;SDS011;32037;50.820;6.494;2022-08-18T08:46:09;19.33;;;17.27;;
46308;SDS011;32037;50.820;6.494;2022-08-18T08:48:42;19.10;;;17.20;;
46308;SDS011;32037;50.820;6.494;2022-08-18T08:51:27;23.67;;;20.63;;
46308;SDS011;32037;50.820;6.494;2022-08-18T08:54:03;28.30;;;25.02;;
46308;SDS011;32037;50.820;6.494;2022-08-18T08:56:43;22.33;;;19.93;;
46308;SDS011;32037;50.820;6.494;2022-08-18T08:59:14;22.23;;;19.70;;
46308;SDS011;32037;50.820;6.494;2022-08-18T09:01:45;23.07;;;20.57;;
46308;SDS011;32037;50.820;6.494;2022-08-18T09:04:26;19.83;;;17.50;;
46308;SDS011;32037;50.820;6.494;2022-08-18T09:07:05;21.17;;;18.83;;
46308;SDS011;32037;50.820;6.494;2022-08-18T09:09:46;21.67;;;19.37;;
46308;SDS011;32037;50.820;6.494;2022-08-18T09:12:38;20.77;;;18.60;;
46308;SDS011;32037;50.820;6.494;2022-08-18T09:15:23;20.13;;;16.90;;
46308;SDS011;32037;50.820;6.494;2022-08-18T09:18:33;17.30;;;15.50;;
46308;SDS011;32037;50.820;6.494;2022-08-18T09:21:36;19.70;;;16.50;;
46308;SDS011;32037;50.820;6.494;2022-08-18T09:24:13;16.70;;;15.00;;
46308;SDS011;32037;50.820;6.494;2022-08-18T09:26:49;15.67;;;14.07;;
46308;SDS011;32037;50.820;6.494;2022-08-18T09:29:22;15.77;;;14.17;;
46308;SDS011;32037;50.820;6.494;2022-08-18T09:35:01;19.37;;;17.37;;
46308;SDS011;32037;50.820;6.494;2022-08-18T09:37:44;19.53;;;17.53;;
46308;SDS011;32037;50.820;6.494;2022-08-18T09:40:43;19.13;;;17.13;;
46308;SDS011;32037;50.820;6.494;2022-08-18T09:43:30;17.87;;;15.97;;
46308;SDS011;32037;50.820;6.494;2022-08-18T09:46:03;16.30;;;14.57;;
46308;SDS011;32037;50.820;6.494;2022-08-18T09:48:39;16.67;;;15.07;;
46308;SDS011;32037;50.820;6.494;2022-08-18T09:51:39;17.53;;;15.73;;
46308;SDS011;32037;50.820;6.494;2022-08-18T09:54:14;18.97;;;16.97;;
46308;SDS011;32037;50.820;6.494;2022-08-18T10:05:40;18.97;;;17.07;;
46308;SDS011;32037;50.820;6.494;2022-08-18T10:12:13;18.60;;;16.80;;
46308;SDS011;32037;50.820;6.494;2022-08-18T10:14:57;17.27;;;15.47;;
46308;SDS011;32037;50.820;6.494;2022-08-18T10:18:03;15.93;;;14.43;;
46308;SDS011;32037;50.820;6.494;2022-08-18T10:20:54;15.33;;;13.80;;
46308;SDS011;32037;50.820;6.494;2022-08-18T10:29:43;16.37;;;14.70;;
46308;SDS011;32037;50.820;6.494;2022-08-18T10:38:39;18.87;;;17.00;;
46308;SDS011;32037;50.820;6.494;2022-08-18T10:41:23;15.60;;;14.10;;
46308;SDS011;32037;50.820;6.494;2022-08-18T10:43:59;18.13;;;16.23;;
46308;SDS011;32037;50.820;6.494;2022-08-18T10:46:49;18.73;;;14.47;;
46308;SDS011;32037;50.820;6.494;2022-08-18T10:49:20;16.40;;;14.67;;
46308;SDS011;32037;50.820;6.494;2022-08-18T10:51:59;16.40;;;14.80;;
46308;SDS011;32037;50.820;6.494;2022-08-18T10:54:54;15.83;;;14.17;;
46308;SDS011;32037;50.820;6.494;2022-08-18T10:58:24;15.97;;;14.40;;
46308;SDS011;32037;50.820;6.494;2022-08-18T11:04:07;17.20;;;15.40;;
46308;SDS011;32037;50.820;6.494;2022-08-18T11:07:02;16.87;;;14.77;;
46308;SDS011;32037;50.820;6.494;2022-08-18T11:09:36;16.47;;;14.77;;
46308;SDS011;32037;50.820;6.494;2022-08-18T11:12:45;17.30;;;15.50;;
46308;SDS011;32037;50.820;6.494;2022-08-18T11:15:36;19.07;;;17.17;;
46308;SDS011;32037;50.820;6.494;2022-08-18T11:18:22;17.90;;;16.07;;
46308;SDS011;32037;50.820;6.494;2022-08-18T11:21:22;17.20;;;15.40;;
46308;SDS011;32037;50.820;6.494;2022-08-18T11:24:06;17.37;;;15.67;;
46308;SDS011;32037;50.820;6.494;2022-08-18T11:26:39;15.70;;;14.30;;
46308;SDS011;32037;50.820;6.494;2022-08-18T11:29:19;14.87;;;13.37;;
46308;SDS011;32037;50.820;6.494;2022-08-18T11:31:52;13.70;;;11.60;;
46308;SDS011;32037;50.820;6.494;2022-08-18T11:34:30;14.90;;;13.50;;
46308;SDS011;32037;50.820;6.494;2022-08-18T11:37:04;14.63;;;13.23;;
46308;SDS011;32037;50.820;6.494;2022-08-18T11:39:41;13.77;;;12.43;;
46308;SDS011;32037;50.820;6.494;2022-08-18T11:42:15;14.07;;;12.67;;
46308;SDS011;32037;50.820;6.494;2022-08-18T11:44:52;14.00;;;12.73;;
46308;SDS011;32037;50.820;6.494;2022-08-18T11:47:21;14.20;;;13.00;;
46308;SDS011;32037;50.820;6.494;2022-08-18T11:49:57;15.33;;;13.80;;
46308;SDS011;32037;50.820;6.494;2022-08-18T11:52:45;13.20;;;11.57;;
46308;SDS011;32037;50.820;6.494;2022-08-18T11:55:20;13.73;;;12.30;;
46308;SDS011;32037;50.820;6.494;2022-08-18T11:57:56;16.93;;;13.70;;
46308;SDS011;32037;50.820;6.494;2022-08-18T12:00:40;12.20;;;11.10;;
46308;SDS011;32037;50.820;6.494;2022-08-18T12:03:22;12.47;;;11.17;;
46308;SDS011;32037;50.820;6.494;2022-08-18T12:06:00;12.80;;;11.60;;
46308;SDS011;32037;50.820;6.494;2022-08-18T12:08:50;12.27;;;11.17;;
46308;SDS011;32037;50.820;6.494;2022-08-18T12:11:26;12.47;;;11.37;;
46308;SDS011;32037;50.820;6.494;2022-08-18T12:14:00;12.50;;;11.30;;
46308;SDS011;32037;50.820;6.494;2022-08-18T12:16:52;11.00;;;10.10;;
46308;SDS011;32037;50.820;6.494;2022-08-18T12:19:21;10.90;;;10.00;;
46308;SDS011;32037;50.820;6.494;2022-08-18T12:21:56;14.90;;;13.43;;
46308;SDS011;32037;50.820;6.494;2022-08-18T12:24:29;11.97;;;10.90;;
46308;SDS011;32037;50.820;6.494;2022-08-18T12:27:04;13.10;;;11.80;;
46308;SDS011;32037;50.820;6.494;2022-08-18T12:29:47;13.13;;;11.93;;
46308;SDS011;32037;50.820;6.494;2022-08-18T12:32:16;11.67;;;10.63;;
46308;SDS011;32037;50.820;6.494;2022-08-18T12:35:05;10.00;;;9.10;;
46308;SDS011;32037;50.820;6.494;2022-08-18T12:37:42;12.23;;;11.00;;
46308;SDS011;32037;50.820;6.494;2022-08-18T12:40:31;13.07;;;11.77;;
46308;SDS011;32037;50.820;6.494;2022-08-18T12:43:00;12.77;;;10.50;;
46308;SDS011;32037;50.820;6.494;2022-08-18T12:45:31;11.73;;;10.73;;
46308;SDS011;32037;50.820;6.494;2022-08-18T12:48:03;11.80;;;10.80;;
46308;SDS011;32037;50.820;6.494;2022-08-18T12:50:32;12.00;;;11.00;;
46308;SDS011;32037;50.820;6.494;2022-08-18T12:53:23;10.73;;;9.83;;
46308;SDS011;32037;50.820;6.494;2022-08-18T12:56:15;12.43;;;11.40;;
46308;SDS011;32037;50.820;6.494;2022-08-18T12:58:48;14.57;;;13.07;;
46308;SDS011;32037;50.820;6.494;2022-08-18T13:01:17;13.70;;;12.50;;
46308;SDS011;32037;50.820;6.494;2022-08-18T13:03:49;11.27;;;10.00;;
46308;SDS011;32037;50.820;6.494;2022-08-18T13:06:40;12.17;;;11.10;;
46308;SDS011;32037;50.820;6.494;2022-08-18T13:09:28;12.03;;;10.93;;
46308;SDS011;32037;50.820;6.494;2022-08-18T13:12:14;9.90;;;9.10;;
46308;SDS011;32037;50.820;6.494;2022-08-18T13:14:44;10.77;;;9.80;;
46308;SDS011;32037;50.820;6.494;2022-08-18T13:17:16;12.60;;;11.50;;
46308;SDS011;32037;50.820;6.494;2022-08-18T13:20:00;11.47;;;10.30;;
46308;SDS011;32037;50.820;6.494;2022-08-18T13:22:30;11.07;;;10.07;;
46308;SDS011;32037;50.820;6.494;2022-08-18T13:25:00;11.83;;;10.73;;
46308;SDS011;32037;50.820;6.494;2022-08-18T13:27:31;11.00;;;10.10;;
46308;SDS011;32037;50.820;6.494;2022-08-18T13:30:05;11.87;;;10.93;;
46308;SDS011;32037;50.820;6.494;2022-08-18T13:32:56;10.90;;;10.00;;
46308;SDS011;32037;50.820;6.494;2022-08-18T13:35:31;9.57;;;8.77;;
46308;SDS011;32037;50.820;6.494;2022-08-18T13:38:09;12.23;;;11.23;;
46308;SDS011;32037;50.820;6.494;2022-08-18T13:40:48;10.20;;;9.20;;
46308;SDS011;32037;50.820;6.494;2022-08-18T13:43:17;11.33;;;10.33;;
46308;SDS011;32037;50.820;6.494;2022-08-18T13:45:52;10.67;;;9.83;;
46308;SDS011;32037;50.820;6.494;2022-08-18T13:48:22;9.83;;;8.93;;
46308;SDS011;32037;50.820;6.494;2022-08-18T13:50:52;9.07;;;8.30;;
46308;SDS011;32037;50.820;6.494;2022-08-18T13:53:22;10.20;;;9.00;;
46308;SDS011;32037;50.820;6.494;2022-08-18T13:55:54;9.10;;;8.40;;
46308;SDS011;32037;50.820;6.494;2022-08-18T13:58:25;9.20;;;8.40;;
46308;SDS011;32037;50.820;6.494;2022-08-18T14:00:56;7.97;;;7.37;;
46308;SDS011;32037;50.820;6.494;2022-08-18T14:03:46;9.30;;;8.50;;
46308;SDS011;32037;50.820;6.494;2022-08-18T14:06:15;8.70;;;7.83;;
46308;SDS011;32037;50.820;6.494;2022-08-18T14:08:52;8.73;;;8.03;;
46308;SDS011;32037;50.820;6.494;2022-08-18T14:11:24;8.10;;;7.40;;
46308;SDS011;32037;50.820;6.494;2022-08-18T14:13:59;8.73;;;7.93;;
46308;SDS011;32037;50.820;6.494;2022-08-18T14:16:28;8.07;;;7.43;;
46308;SDS011;32037;50.820;6.494;2022-08-18T14:18:57;8.33;;;7.33;;
46308;SDS011;32037;50.820;6.494;2022-08-18T14:21:51;8.40;;;7.73;;
46308;SDS011;32037;50.820;6.494;2022-08-18T14:24:38;7.03;;;6.53;;
46308;SDS011;32037;50.820;6.494;2022-08-18T14:27:28;7.03;;;6.50;;
46308;SDS011;32037;50.820;6.494;2022-08-18T14:30:01;7.17;;;6.50;;
46308;SDS011;32037;50.820;6.494;2022-08-18T14:32:32;7.30;;;6.80;;
46308;SDS011;32037;50.820;6.494;2022-08-18T14:35:02;7.40;;;6.80;;
46308;SDS011;32037;50.820;6.494;2022-08-18T14:37:52;7.17;;;6.67;;
46308;SDS011;32037;50.820;6.494;2022-08-18T14:40:22;6.87;;;6.37;;
46308;SDS011;32037;50.820;6.494;2022-08-18T14:42:54;7.63;;;6.83;;
46308;SDS011;32037;50.820;6.494;2022-08-18T14:45:32;9.90;;;6.80;;
46308;SDS011;32037;50.820;6.494;2022-08-18T14:48:16;6.60;;;6.00;;
46308;SDS011;32037;50.820;6.494;2022-08-18T14:50:49;6.40;;;5.80;;
46308;SDS011;32037;50.820;6.494;2022-08-18T14:53:23;7.20;;;6.50;;
46308;SDS011;32037;50.820;6.494;2022-08-18T14:55:54;6.73;;;6.17;;
46308;SDS011;32037;50.820;6.494;2022-08-18T14:58:27;6.60;;;6.10;;
46308;SDS011;32037;50.820;6.494;2022-08-18T15:00:59;6.47;;;5.87;;
46308;SDS011;32037;50.820;6.494;2022-08-18T15:03:34;7.67;;;7.07;;
46308;SDS011;32037;50.820;6.494;2022-08-18T15:06:05;6.20;;;5.80;;
46308;SDS011;32037;50.820;6.494;2022-08-18T15:08:42;7.60;;;7.07;;
46308;SDS011;32037;50.820;6.494;2022-08-18T15:11:12;6.37;;;5.77;;
46308;SDS011;32037;50.820;6.494;2022-08-18T15:13:43;6.40;;;5.90;;
46308;SDS011;32037;50.820;6.494;2022-08-18T15:16:14;6.63;;;6.07;;
46308;SDS011;32037;50.820;6.494;2022-08-18T15:18:43;6.23;;;5.63;;
46308;SDS011;32037;50.820;6.494;2022-08-18T15:21:13;7.53;;;7.03;;
46308;SDS011;32037;50.820;6.494;2022-08-18T15:24:04;6.47;;;5.87;;
46308;SDS011;32037;50.820;6.494;2022-08-18T15:26:51;6.33;;;5.83;;
46308;SDS011;32037;50.820;6.494;2022-08-18T15:29:25;8.50;;;6.70;;
46308;SDS011;32037;50.820;6.494;2022-08-18T15:31:55;6.40;;;5.90;;
46308;SDS011;32037;50.820;6.494;2022-08-18T15:34:31;6.03;;;5.63;;
46308;SDS011;32037;50.820;6.494;2022-08-18T15:37:13;6.50;;;5.90;;
46308;SDS011;32037;50.820;6.494;2022-08-18T15:39:46;5.90;;;5.40;;
46308;SDS011;32037;50.820;6.494;2022-08-18T15:42:21;5.80;;;5.40;;
46308;SDS011;32037;50.820;6.494;2022-08-18T15:44:51;5.80;;;5.40;;
46308;SDS011;32037;50.820;6.494;2022-08-18T15:47:22;5.93;;;5.53;;
46308;SDS011;32037;50.820;6.494;2022-08-18T15:49:51;5.53;;;5.13;;
46308;SDS011;32037;50.820;6.494;2022-08-18T15:52:20;5.80;;;5.30;;
46308;SDS011;32037;50.820;6.494;2022-08-18T15:54:51;5.87;;;5.40;;
46308;SDS011;32037;50.820;6.494;2022-08-18T15:57:27;6.10;;;5.53;;
46308;SDS011;32037;50.820;6.494;2022-08-18T16:00:07;6.67;;;6.17;;